sensor_id;sensor_type;location;lat;lon;timestamp;pressure;altitude;pressure_sealevel;temperature;humidity
23589;BME280;11972;48.078;11.876;2023-02-14T00:03:41;97195.31;;;0.18;100.00
23589;BME280;11972;48.078;11.876;2023-02-14T00:07:41;97203.34;;;0.14;100.00
23589;BME280;11972;48.078;11.876;2023-02-14T00:11:42;97188.97;;;0.07;100.00
23589;BME280;11972;48.078;11.876;2023-02-14T00:15:42;97190.50;;;0.11;100.00
23589;BME280;11972;48.078;11.876;2023-02-14T00:19:46;97187.59;;;0.17;100.00
23589;BME280;11972;48.078;11.876;2023-02-14T00:23:47;97183.16;;;0.19;100.00
23589;BME280;11972;48.078;11.876;2023-02-14T00:27:47;97174.91;;;0.11;100.00
23589;BME280;11972;48.078;11.876;2023-02-14T00:31:48;97173.38;;;0.07;100.00
23589;BME280;11972;48.078;11.876;2023-02-14T00:35:49;97169.94;;;0.06;100.00
23589;BME280;11972;48.078;11.876;2023-02-14T00:39:52;97173.63;;;0.02;100.00
23589;BME280;11972;48.078;11.876;2023-02-14T00:43:53;97179.97;;;-0.04;100.00
23589;BME280;11972;48.078;11.876;2023-02-14T00:47:56;97195.47;;;-0.02;100.00
23589;BME280;11972;48.078;11.876;2023-02-14T00:51:57;97194.41;;;0.02;100.00
23589;BME280;11972;48.078;11.876;2023-02-14T00:55:57;97184.84;;;0.03;100.00
23589;BME280;11972;48.078;11.876;2023-02-14T00:59:57;97177.97;;;0.02;100.00
23589;BME280;11972;48.078;11.876;2023-02-14T01:03:58;97175.22;;;0.05;100.00
23589;BME280;11972;48.078;11.876;2023-02-14T01:07:58;97168.97;;;0.09;100.00
23589;BME280;11972;48.078;11.876;2023-02-14T01:11:59;97175.28;;;0.03;100.00
23589;BME280;11972;48.078;11.876;2023-02-14T01:16:04;97174.84;;;-0.22;100.00
23589;BME280;11972;48.078;11.876;2023-02-14T01:20:06;97190.88;;;-0.32;100.00
23589;BME280;11972;48.078;11.876;2023-02-14T01:24:07;97206.31;;;-0.29;100.00
23589;BME280;11972;48.078;11.876;2023-02-14T01:28:07;97202.25;;;-0.17;100.00
23589;BME280;11972;48.078;11.876;2023-02-14T01:32:07;97201.75;;;-0.06;100.00
23589;BME280;11972;48.078;11.876;2023-02-14T01:36:17;97211.16;;;-0.04;100.00
23589;BME280;11972;48.078;11.876;2023-02-14T01:40:18;97201.13;;;0.06;100.00
23589;BME280;11972;48.078;11.876;2023-02-14T01:48:38;97203.94;;;0.19;100.00
23589;BME280;11972;48.078;11.876;2023-02-14T01:52:46;97198.00;;;0.17;100.00
23589;BME280;11972;48.078;11.876;2023-02-14T01:56:50;97203.03;;;0.20;100.00
23589;BME280;11972;48.078;11.876;2023-02-14T02:00:53;97197.81;;;0.20;100.00
23589;BME280;11972;48.078;11.876;2023-02-14T02:04:56;97196.16;;;0.19;100.00
23589;BME280;11972;48.078;11.876;2023-02-14T02:09:06;97189.28;;;0.18;100.00
23589;BME280;11972;48.078;11.876;2023-02-14T02:13:14;97190.81;;;0.22;100.00
23589;BME280;11972;48.078;11.876;2023-02-14T02:21:56;97173.06;;;0.30;100.00
23589;BME280;11972;48.078;11.876;2023-02-14T02:26:24;97177.56;;;0.27;100.00
23589;BME280;11972;48.078;11.876;2023-02-14T02:30:52;97175.97;;;0.24;100.00
23589;BME280;11972;48.078;11.876;2023-02-14T02:39:11;97176.59;;;0.29;100.00
23589;BME280;11972;48.078;11.876;2023-02-14T02:47:23;97161.28;;;0.23;100.00
23589;BME280;11972;48.078;11.876;2023-02-14T02:51:52;97171.00;;;0.19;100.00
23589;BME280;11972;48.078;11.876;2023-02-14T02:56:18;97162.47;;;0.17;100.00
23589;BME280;11972;48.078;11.876;2023-02-14T03:00:40;97160.59;;;0.19;100.00
23589;BME280;11972;48.078;11.876;2023-02-14T03:04:46;97159.47;;;0.25;100.00
23589;BME280;11972;48.078;11.876;2023-02-14T03:08:53;97165.13;;;0.33;100.00
23589;BME280;11972;48.078;11.876;2023-02-14T03:13:03;97161.50;;;0.36;100.00
23589;BME280;11972;48.078;11.876;2023-02-14T03:17:39;97146.72;;;0.36;100.00
23589;BME280;11972;48.078;11.876;2023-02-14T03:30:17;97166.19;;;0.29;100.00
23589;BME280;11972;48.078;11.876;2023-02-14T03:34:52;97162.81;;;0.27;100.00
23589;BME280;11972;48.078;11.876;2023-02-14T03:43:09;97159.81;;;0.35;100.00
23589;BME280;11972;48.078;11.876;2023-02-14T03:47:15;97156.44;;;0.33;100.00
23589;BME280;11972;48.078;11.876;2023-02-14T03:51:17;97157.31;;;0.33;100.00
23589;BME280;11972;48.078;11.876;2023-02-14T03:55:33;97159.13;;;0.31;100.00
23589;BME280;11972;48.078;11.876;2023-02-14T03:59:34;97169.38;;;0.34;100.00
23589;BME280;11972;48.078;11.876;2023-02-14T04:03:38;97163.34;;;0.34;100.00
23589;BME280;11972;48.078;11.876;2023-02-14T04:07:48;97165.78;;;0.37;100.00
23589;BME280;11972;48.078;11.876;2023-02-14T04:11:49;97174.59;;;0.34;100.00
23589;BME280;11972;48.078;11.876;2023-02-14T04:15:51;97165.13;;;0.33;100.00
23589;BME280;11972;48.078;11.876;2023-02-14T04:19:52;97176.25;;;0.35;100.00
23589;BME280;11972;48.078;11.876;2023-02-14T04:23:52;97159.03;;;0.33;100.00
23589;BME280;11972;48.078;11.876;2023-02-14T04:27:52;97161.75;;;0.31;100.00
23589;BME280;11972;48.078;11.876;2023-02-14T04:31:54;97161.00;;;0.29;100.00
23589;BME280;11972;48.078;11.876;2023-02-14T04:35:54;97146.28;;;0.28;100.00
23589;BME280;11972;48.078;11.876;2023-02-14T04:39:55;97157.31;;;0.33;100.00
23589;BME280;11972;48.078;11.876;2023-02-14T04:43:55;97146.00;;;0.34;100.00
23589;BME280;11972;48.078;11.876;2023-02-14T04:47:55;97144.31;;;0.33;100.00
23589;BME280;11972;48.078;11.876;2023-02-14T04:51:56;97140.00;;;0.32;100.00
23589;BME280;11972;48.078;11.876;2023-02-14T04:55:56;97137.59;;;0.29;100.00
23589;BME280;11972;48.078;11.876;2023-02-14T04:59:57;97139.41;;;0.27;100.00
23589;BME280;11972;48.078;11.876;2023-02-14T05:03:57;97135.91;;;0.28;100.00
23589;BME280;11972;48.078;11.876;2023-02-14T05:07:57;97137.34;;;0.34;100.00
23589;BME280;11972;48.078;11.876;2023-02-14T05:11:58;97138.19;;;0.34;100.00
23589;BME280;11972;48.078;11.876;2023-02-14T05:15:58;97129.63;;;0.32;100.00
23589;BME280;11972;48.078;11.876;2023-02-14T05:19:58;97131.31;;;0.33;100.00
23589;BME280;11972;48.078;11.876;2023-02-14T05:23:59;97130.53;;;0.31;100.00
23589;BME280;11972;48.078;11.876;2023-02-14T05:28:00;97126.75;;;0.21;100.00
23589;BME280;11972;48.078;11.876;2023-02-14T05:32:00;97127.66;;;0.20;100.00
23589;BME280;11972;48.078;11.876;2023-02-14T05:36:00;97127.66;;;0.20;100.00
23589;BME280;11972;48.078;11.876;2023-02-14T05:40:01;97123.38;;;0.19;100.00
23589;BME280;11972;48.078;11.876;2023-02-14T05:44:02;97128.91;;;0.13;100.00
23589;BME280;11972;48.078;11.876;2023-02-14T05:48:02;97130.44;;;0.17;100.00
23589;BME280;11972;48.078;11.876;2023-02-14T05:52:03;97120.78;;;0.19;100.00
23589;BME280;11972;48.078;11.876;2023-02-14T05:56:04;97140.75;;;0.18;100.00
23589;BME280;11972;48.078;11.876;2023-02-14T06:00:06;97140.28;;;0.10;100.00
23589;BME280;11972;48.078;11.876;2023-02-14T06:04:07;97143.81;;;0.09;100.00
23589;BME280;11972;48.078;11.876;2023-02-14T06:08:07;97139.59;;;0.07;100.00
23589;BME280;11972;48.078;11.876;2023-02-14T06:12:07;97144.19;;;0.02;100.00
23589;BME280;11972;48.078;11.876;2023-02-14T06:16:08;97158.19;;;-0.01;100.00
23589;BME280;11972;48.078;11.876;2023-02-14T06:20:08;97159.00;;;-0.01;100.00
23589;BME280;11972;48.078;11.876;2023-02-14T06:24:09;97165.69;;;-0.12;100.00
23589;BME280;11972;48.078;11.876;2023-02-14T06:28:09;97162.03;;;-0.08;100.00
23589;BME280;11972;48.078;11.876;2023-02-14T06:32:10;97158.41;;;-0.06;100.00
23589;BME280;11972;48.078;11.876;2023-02-14T06:36:10;97156.34;;;0.01;100.00
23589;BME280;11972;48.078;11.876;2023-02-14T06:40:11;97148.19;;;0.09;100.00
23589;BME280;11972;48.078;11.876;2023-02-14T06:44:12;97154.13;;;0.11;100.00
23589;BME280;11972;48.078;11.876;2023-02-14T06:48:12;97153.38;;;0.09;100.00
23589;BME280;11972;48.078;11.876;2023-02-14T06:52:12;97154.22;;;0.09;100.00
23589;BME280;11972;48.078;11.876;2023-02-14T06:56:13;97150.69;;;0.10;100.00
23589;BME280;11972;48.078;11.876;2023-02-14T07:00:13;97164.38;;;0.14;100.00
23589;BME280;11972;48.078;11.876;2023-02-14T07:04:14;97159.03;;;0.17;100.00
23589;BME280;11972;48.078;11.876;2023-02-14T07:08:14;97159.63;;;0.22;100.00
23589;BME280;11972;48.078;11.876;2023-02-14T07:12:15;97164.50;;;0.28;100.00
23589;BME280;11972;48.078;11.876;2023-02-14T07:16:16;97162.09;;;0.41;100.00
23589;BME280;11972;48.078;11.876;2023-02-14T07:20:17;97159.88;;;0.51;100.00
23589;BME280;11972;48.078;11.876;2023-02-14T07:24:17;97150.84;;;0.58;100.00
23589;BME280;11972;48.078;11.876;2023-02-14T07:28:18;97149.56;;;0.65;100.00
23589;BME280;11972;48.078;11.876;2023-02-14T07:32:18;97141.84;;;0.63;100.00
23589;BME280;11972;48.078;11.876;2023-02-14T07:36:18;97140.78;;;0.67;100.00
23589;BME280;11972;48.078;11.876;2023-02-14T07:40:19;97135.06;;;0.77;100.00
23589;BME280;11972;48.078;11.876;2023-02-14T07:44:20;97122.16;;;0.91;100.00
23589;BME280;11972;48.078;11.876;2023-02-14T07:48:20;97131.81;;;1.05;100.00
23589;BME280;11972;48.078;11.876;2023-02-14T07:52:21;97124.66;;;1.24;100.00
23589;BME280;11972;48.078;11.876;2023-02-14T07:56:21;97117.06;;;1.35;100.00
23589;BME280;11972;48.078;11.876;2023-02-14T08:00:22;97122.69;;;1.43;100.00
23589;BME280;11972;48.078;11.876;2023-02-14T08:04:22;97118.41;;;1.42;100.00
23589;BME280;11972;48.078;11.876;2023-02-14T08:08:27;97120.75;;;1.47;100.00
23589;BME280;11972;48.078;11.876;2023-02-14T08:12:27;97116.03;;;1.54;100.00
23589;BME280;11972;48.078;11.876;2023-02-14T08:16:46;97122.22;;;1.67;100.00
23589;BME280;11972;48.078;11.876;2023-02-14T08:20:47;97118.81;;;1.81;100.00
23589;BME280;11972;48.078;11.876;2023-02-14T08:24:48;97117.81;;;1.97;100.00
23589;BME280;11972;48.078;11.876;2023-02-14T08:28:49;97114.47;;;1.95;100.00
23589;BME280;11972;48.078;11.876;2023-02-14T08:32:49;97120.25;;;2.01;100.00
23589;BME280;11972;48.078;11.876;2023-02-14T08:36:50;97118.19;;;2.06;100.00
23589;BME280;11972;48.078;11.876;2023-02-14T08:40:51;97114.06;;;2.32;100.00
23589;BME280;11972;48.078;11.876;2023-02-14T08:44:51;97113.59;;;2.54;100.00
23589;BME280;11972;48.078;11.876;2023-02-14T08:48:51;97104.06;;;2.67;100.00
23589;BME280;11972;48.078;11.876;2023-02-14T08:52:53;97105.19;;;2.77;100.00
23589;BME280;11972;48.078;11.876;2023-02-14T08:56:53;97109.81;;;2.86;100.00
23589;BME280;11972;48.078;11.876;2023-02-14T09:00:54;97096.94;;;2.97;100.00
23589;BME280;11972;48.078;11.876;2023-02-14T09:04:54;97111.66;;;2.98;100.00
23589;BME280;11972;48.078;11.876;2023-02-14T09:08:55;97101.81;;;3.16;100.00
23589;BME280;11972;48.078;11.876;2023-02-14T09:12:55;97108.84;;;3.43;100.00
23589;BME280;11972;48.078;11.876;2023-02-14T09:16:55;97104.69;;;3.66;100.00
23589;BME280;11972;48.078;11.876;2023-02-14T09:20:56;97106.91;;;3.32;100.00
23589;BME280;11972;48.078;11.876;2023-02-14T09:24:56;97111.41;;;3.30;100.00
23589;BME280;11972;48.078;11.876;2023-02-14T09:28:57;97103.75;;;3.54;100.00
23589;BME280;11972;48.078;11.876;2023-02-14T09:32:57;97104.22;;;3.86;100.00
23589;BME280;11972;48.078;11.876;2023-02-14T09:36:59;97104.50;;;3.69;100.00
23589;BME280;11972;48.078;11.876;2023-02-14T09:45:25;97111.56;;;3.00;100.00
23589;BME280;11972;48.078;11.876;2023-02-14T09:49:37;97108.47;;;3.08;100.00
23589;BME280;11972;48.078;11.876;2023-02-14T09:53:57;97105.84;;;3.22;100.00
23589;BME280;11972;48.078;11.876;2023-02-14T09:58:12;97099.06;;;3.32;100.00
23589;BME280;11972;48.078;11.876;2023-02-14T10:02:28;97100.59;;;3.22;100.00
23589;BME280;11972;48.078;11.876;2023-02-14T10:06:45;97099.81;;;3.34;100.00
23589;BME280;11972;48.078;11.876;2023-02-14T10:10:52;97096.16;;;3.10;100.00
23589;BME280;11972;48.078;11.876;2023-02-14T10:15:10;97104.16;;;3.21;100.00
23589;BME280;11972;48.078;11.876;2023-02-14T10:19:38;97096.38;;;3.86;100.00
23589;BME280;11972;48.078;11.876;2023-02-14T10:23:41;97087.84;;;4.22;100.00
23589;BME280;11972;48.078;11.876;2023-02-14T10:27:45;97096.09;;;3.91;100.00
23589;BME280;11972;48.078;11.876;2023-02-14T10:35:58;97084.06;;;3.88;100.00
23589;BME280;11972;48.078;11.876;2023-02-14T10:40:25;97070.97;;;4.39;100.00
23589;BME280;11972;48.078;11.876;2023-02-14T10:44:46;97075.88;;;4.69;100.00
23589;BME280;11972;48.078;11.876;2023-02-14T10:49:01;97075.47;;;5.00;100.00
23589;BME280;11972;48.078;11.876;2023-02-14T11:01:15;97056.69;;;5.89;100.00
23589;BME280;11972;48.078;11.876;2023-02-14T11:05:24;97049.66;;;5.30;100.00
23589;BME280;11972;48.078;11.876;2023-02-14T11:09:25;97048.63;;;5.33;100.00
23589;BME280;11972;48.078;11.876;2023-02-14T11:13:27;97040.28;;;5.74;100.00
23589;BME280;11972;48.078;11.876;2023-02-14T11:17:29;97040.50;;;6.06;100.00
23589;BME280;11972;48.078;11.876;2023-02-14T11:21:36;97040.44;;;5.84;100.00
23589;BME280;11972;48.078;11.876;2023-02-14T11:25:37;97035.41;;;4.86;100.00
23589;BME280;11972;48.078;11.876;2023-02-14T11:33:39;97024.00;;;3.74;100.00
23589;BME280;11972;48.078;11.876;2023-02-14T11:37:45;97021.69;;;3.44;100.00
23589;BME280;11972;48.078;11.876;2023-02-14T11:41:53;97003.09;;;3.48;100.00
23589;BME280;11972;48.078;11.876;2023-02-14T11:50:24;96987.44;;;4.00;100.00
23589;BME280;11972;48.078;11.876;2023-02-14T11:54:34;96994.22;;;4.52;100.00
23589;BME280;11972;48.078;11.876;2023-02-14T11:58:41;96983.19;;;4.96;100.00
23589;BME280;11972;48.078;11.876;2023-02-14T12:02:48;96979.88;;;5.29;100.00
23589;BME280;11972;48.078;11.876;2023-02-14T12:06:49;96983.66;;;5.71;100.00
23589;BME280;11972;48.078;11.876;2023-02-14T12:11:17;96970.97;;;6.01;100.00
23589;BME280;11972;48.078;11.876;2023-02-14T12:28:15;96942.94;;;6.89;100.00
23589;BME280;11972;48.078;11.876;2023-02-14T12:32:20;96941.56;;;7.06;100.00
23589;BME280;11972;48.078;11.876;2023-02-14T12:45:16;96926.34;;;7.42;100.00
23589;BME280;11972;48.078;11.876;2023-02-14T12:54:02;96914.41;;;7.59;100.00
23589;BME280;11972;48.078;11.876;2023-02-14T13:06:37;96911.75;;;7.80;100.00
23589;BME280;11972;48.078;11.876;2023-02-14T13:19:42;96883.88;;;7.67;100.00
23589;BME280;11972;48.078;11.876;2023-02-14T13:23:46;96882.66;;;7.81;100.00
23589;BME280;11972;48.078;11.876;2023-02-14T13:27:49;96879.69;;;7.95;100.00
23589;BME280;11972;48.078;11.876;2023-02-14T13:31:55;96874.59;;;8.04;100.00
23589;BME280;11972;48.078;11.876;2023-02-14T13:35:59;96881.34;;;7.96;100.00
23589;BME280;11972;48.078;11.876;2023-02-14T13:40:07;96876.59;;;7.81;100.00
23589;BME280;11972;48.078;11.876;2023-02-14T13:44:08;96874.88;;;7.70;100.00
23589;BME280;11972;48.078;11.876;2023-02-14T13:48:17;96879.00;;;7.63;100.00
23589;BME280;11972;48.078;11.876;2023-02-14T13:52:44;96874.25;;;7.57;100.00
23589;BME280;11972;48.078;11.876;2023-02-14T13:56:45;96861.63;;;7.51;100.00
23589;BME280;11972;48.078;11.876;2023-02-14T14:00:51;96862.59;;;7.50;100.00
23589;BME280;11972;48.078;11.876;2023-02-14T14:04:52;96857.03;;;7.43;100.00
23589;BME280;11972;48.078;11.876;2023-02-14T14:08:54;96862.53;;;7.40;100.00
23589;BME280;11972;48.078;11.876;2023-02-14T14:12:56;96855.66;;;7.49;100.00
23589;BME280;11972;48.078;11.876;2023-02-14T14:16:58;96855.47;;;7.61;100.00
23589;BME280;11972;48.078;11.876;2023-02-14T14:20:59;96847.22;;;7.76;100.00
23589;BME280;11972;48.078;11.876;2023-02-14T14:25:04;96847.97;;;7.87;100.00
23589;BME280;11972;48.078;11.876;2023-02-14T14:29:28;96845.66;;;8.04;100.00
23589;BME280;11972;48.078;11.876;2023-02-14T14:33:32;96844.69;;;8.05;100.00
23589;BME280;11972;48.078;11.876;2023-02-14T14:37:35;96842.28;;;7.92;100.00
23589;BME280;11972;48.078;11.876;2023-02-14T14:41:44;96843.38;;;7.89;100.00
23589;BME280;11972;48.078;11.876;2023-02-14T14:45:45;96833.25;;;7.75;100.00
23589;BME280;11972;48.078;11.876;2023-02-14T14:49:46;96833.78;;;7.48;100.00
23589;BME280;11972;48.078;11.876;2023-02-14T14:53:53;96831.78;;;7.31;100.00
23589;BME280;11972;48.078;11.876;2023-02-14T14:58:00;96822.00;;;7.12;100.00
23589;BME280;11972;48.078;11.876;2023-02-14T15:02:23;96832.13;;;6.95;100.00
23589;BME280;11972;48.078;11.876;2023-02-14T15:06:25;96830.03;;;6.78;100.00
23589;BME280;11972;48.078;11.876;2023-02-14T15:10:27;96825.09;;;6.64;100.00
23589;BME280;11972;48.078;11.876;2023-02-14T15:14:33;96825.50;;;6.59;100.00
23589;BME280;11972;48.078;11.876;2023-02-14T15:18:35;96822.53;;;6.53;100.00
23589;BME280;11972;48.078;11.876;2023-02-14T15:22:44;96825.38;;;6.50;100.00
23589;BME280;11972;48.078;11.876;2023-02-14T15:26:47;96829.00;;;6.37;100.00
23589;BME280;11972;48.078;11.876;2023-02-14T15:30:54;96827.38;;;6.25;100.00
23589;BME280;11972;48.078;11.876;2023-02-14T15:34:55;96834.69;;;6.10;100.00
23589;BME280;11972;48.078;11.876;2023-02-14T15:38:56;96837.91;;;5.91;100.00
23589;BME280;11972;48.078;11.876;2023-02-14T15:47:17;96838.66;;;5.48;100.00
23589;BME280;11972;48.078;11.876;2023-02-14T15:51:23;96852.22;;;5.31;100.00
23589;BME280;11972;48.078;11.876;2023-02-14T15:55:25;96843.13;;;5.13;100.00
23589;BME280;11972;48.078;11.876;2023-02-14T15:59:28;96847.63;;;5.00;100.00
23589;BME280;11972;48.078;11.876;2023-02-14T16:03:34;96847.09;;;4.83;100.00
23589;BME280;11972;48.078;11.876;2023-02-14T16:07:37;96848.16;;;4.69;100.00
23589;BME280;11972;48.078;11.876;2023-02-14T16:11:38;96851.47;;;4.47;100.00
23589;BME280;11972;48.078;11.876;2023-02-14T16:15:43;96854.97;;;4.24;100.00
23589;BME280;11972;48.078;11.876;2023-02-14T16:19:54;96852.72;;;3.94;100.00
23589;BME280;11972;48.078;11.876;2023-02-14T16:28:04;96853.03;;;3.27;100.00
23589;BME280;11972;48.078;11.876;2023-02-14T16:32:12;96857.50;;;2.99;100.00
23589;BME280;11972;48.078;11.876;2023-02-14T16:36:21;96866.44;;;2.70;100.00
23589;BME280;11972;48.078;11.876;2023-02-14T16:40:25;96864.41;;;2.48;100.00
23589;BME280;11972;48.078;11.876;2023-02-14T16:44:26;96877.44;;;2.21;100.00
23589;BME280;11972;48.078;11.876;2023-02-14T16:48:27;96877.44;;;1.94;100.00
23589;BME280;11972;48.078;11.876;2023-02-14T16:52:27;96879.03;;;1.68;100.00
23589;BME280;11972;48.078;11.876;2023-02-14T16:56:34;96880.34;;;1.46;100.00
23589;BME280;11972;48.078;11.876;2023-02-14T17:00:36;96883.13;;;1.29;100.00
23589;BME280;11972;48.078;11.876;2023-02-14T17:04:38;96886.25;;;1.06;100.00
23589;BME280;11972;48.078;11.876;2023-02-14T17:08:39;96889.19;;;0.85;100.00
23589;BME280;11972;48.078;11.876;2023-02-14T17:12:42;96895.63;;;0.64;100.00
23589;BME280;11972;48.078;11.876;2023-02-14T17:16:43;96887.97;;;0.46;100.00
23589;BME280;11972;48.078;11.876;2023-02-14T17:20:44;96890.69;;;0.29;100.00
23589;BME280;11972;48.078;11.876;2023-02-14T17:24:44;96903.06;;;0.08;100.00
23589;BME280;11972;48.078;11.876;2023-02-14T17:28:45;96895.38;;;-0.09;100.00
23589;BME280;11972;48.078;11.876;2023-02-14T17:32:45;96899.16;;;-0.15;100.00
23589;BME280;11972;48.078;11.876;2023-02-14T17:36:46;96907.19;;;-0.19;100.00
23589;BME280;11972;48.078;11.876;2023-02-14T17:40:46;96907.19;;;-0.19;100.00
23589;BME280;11972;48.078;11.876;2023-02-14T17:44:46;96900.72;;;-0.28;100.00
23589;BME280;11972;48.078;11.876;2023-02-14T17:48:47;96900.06;;;-0.16;100.00
23589;BME280;11972;48.078;11.876;2023-02-14T17:52:52;96899.88;;;-0.13;100.00
23589;BME280;11972;48.078;11.876;2023-02-14T17:56:53;96900.13;;;-0.17;100.00
23589;BME280;11972;48.078;11.876;2023-02-14T18:00:53;96893.19;;;-0.17;100.00
23589;BME280;11972;48.078;11.876;2023-02-14T18:04:53;96896.69;;;-0.18;100.00
23589;BME280;11972;48.078;11.876;2023-02-14T18:08:54;96894.38;;;-0.07;100.00
23589;BME280;11972;48.078;11.876;2023-02-14T18:12:57;96895.38;;;0.07;100.00
23589;BME280;11972;48.078;11.876;2023-02-14T18:16:57;96899.41;;;-0.04;100.00
23589;BME280;11972;48.078;11.876;2023-02-14T18:21:00;96889.84;;;-0.19;100.00
23589;BME280;11972;48.078;11.876;2023-02-14T18:25:00;96892.19;;;-0.14;100.00
23589;BME280;11972;48.078;11.876;2023-02-14T18:29:01;96896.81;;;-0.19;100.00
23589;BME280;11972;48.078;11.876;2023-02-14T18:33:05;96892.16;;;-0.30;100.00
23589;BME280;11972;48.078;11.876;2023-02-14T18:37:05;96889.38;;;-0.43;100.00
23589;BME280;11972;48.078;11.876;2023-02-14T18:41:08;96889.97;;;-0.38;100.00
23589;BME280;11972;48.078;11.876;2023-02-14T18:45:09;96894.38;;;-0.07;100.00
23589;BME280;11972;48.078;11.876;2023-02-14T18:49:09;96892.25;;;-0.32;100.00
23589;BME280;11972;48.078;11.876;2023-02-14T18:53:12;96886.53;;;-0.38;100.00
23589;BME280;11972;48.078;11.876;2023-02-14T18:57:12;96885.97;;;-0.43;100.00
23589;BME280;11972;48.078;11.876;2023-02-14T19:01:16;96883.94;;;-0.38;100.00
23589;BME280;11972;48.078;11.876;2023-02-14T19:05:16;96884.47;;;-0.32;100.00
23589;BME280;11972;48.078;11.876;2023-02-14T19:09:17;96883.78;;;-0.35;100.00
23589;BME280;11972;48.078;11.876;2023-02-14T19:13:17;96886.13;;;-0.46;100.00
23589;BME280;11972;48.078;11.876;2023-02-14T19:17:18;96888.13;;;-0.52;100.00
23589;BME280;11972;48.078;11.876;2023-02-14T19:21:21;96881.56;;;-0.59;100.00
23589;BME280;11972;48.078;11.876;2023-02-14T19:25:21;96888.44;;;-0.58;100.00
23589;BME280;11972;48.078;11.876;2023-02-14T19:29:21;96881.41;;;-0.56;100.00
23589;BME280;11972;48.078;11.876;2023-02-14T19:33:22;96884.59;;;-0.51;100.00
23589;BME280;11972;48.078;11.876;2023-02-14T19:37:22;96885.38;;;-0.48;100.00
23589;BME280;11972;48.078;11.876;2023-02-14T19:41:25;96885.13;;;-0.44;100.00
23589;BME280;11972;48.078;11.876;2023-02-14T19:45:26;96869.53;;;-0.60;100.00
23589;BME280;11972;48.078;11.876;2023-02-14T19:49:31;96867.91;;;-0.78;100.00
23589;BME280;11972;48.078;11.876;2023-02-14T19:53:33;96865.50;;;-0.65;100.00
23589;BME280;11972;48.078;11.876;2023-02-14T19:57:33;96867.50;;;-0.55;100.00
23589;BME280;11972;48.078;11.876;2023-02-14T20:01:40;96862.91;;;-0.50;100.00
23589;BME280;11972;48.078;11.876;2023-02-14T20:05:42;96860.31;;;-0.50;100.00
23589;BME280;11972;48.078;11.876;2023-02-14T20:09:42;96862.22;;;-0.69;100.00
23589;BME280;11972;48.078;11.876;2023-02-14T20:13:42;96863.78;;;-0.82;100.00
23589;BME280;11972;48.078;11.876;2023-02-14T20:17:43;96856.75;;;-0.80;100.00
23589;BME280;11972;48.078;11.876;2023-02-14T20:21:45;96852.53;;;-0.65;100.00
23589;BME280;11972;48.078;11.876;2023-02-14T20:25:45;96843.88;;;-0.82;100.00
23589;BME280;11972;48.078;11.876;2023-02-14T20:29:46;96842.41;;;-0.70;100.00
23589;BME280;11972;48.078;11.876;2023-02-14T20:33:46;96847.09;;;-0.61;100.00
23589;BME280;11972;48.078;11.876;2023-02-14T20:37:49;96845.59;;;-0.49;100.00
23589;BME280;11972;48.078;11.876;2023-02-14T20:41:51;96844.44;;;-0.43;100.00
23589;BME280;11972;48.078;11.876;2023-02-14T20:45:57;96835.66;;;-0.41;100.00
23589;BME280;11972;48.078;11.876;2023-02-14T20:49:57;96825.31;;;-0.42;100.00
23589;BME280;11972;48.078;11.876;2023-02-14T20:53:58;96828.06;;;-0.45;100.00
23589;BME280;11972;48.078;11.876;2023-02-14T20:57:58;96823.75;;;-0.45;100.00
23589;BME280;11972;48.078;11.876;2023-02-14T21:02:01;96825.56;;;-0.47;100.00
23589;BME280;11972;48.078;11.876;2023-02-14T21:06:03;96823.97;;;-0.50;100.00
23589;BME280;11972;48.078;11.876;2023-02-14T21:10:04;96812.84;;;-0.52;100.00
23589;BME280;11972;48.078;11.876;2023-02-14T21:14:06;96808.66;;;-0.54;100.00
23589;BME280;11972;48.078;11.876;2023-02-14T21:18:06;96806.25;;;-0.57;100.00
23589;BME280;11972;48.078;11.876;2023-02-14T21:22:07;96813.09;;;-0.56;100.00
23589;BME280;11972;48.078;11.876;2023-02-14T21:26:07;96805.38;;;-0.58;100.00
23589;BME280;11972;48.078;11.876;2023-02-14T21:30:08;96802.53;;;-0.69;100.00
23589;BME280;11972;48.078;11.876;2023-02-14T21:34:08;96798.69;;;-0.78;100.00
23589;BME280;11972;48.078;11.876;2023-02-14T21:38:09;96798.84;;;-0.81;100.00
23589;BME280;11972;48.078;11.876;2023-02-14T21:42:09;96784.09;;;-0.80;100.00
23589;BME280;11972;48.078;11.876;2023-02-14T21:46:16;96793.75;;;-0.82;100.00
23589;BME280;11972;48.078;11.876;2023-02-14T21:50:17;96781.50;;;-0.80;100.00
23589;BME280;11972;48.078;11.876;2023-02-14T21:54:29;96787.63;;;-0.81;100.00
23589;BME280;11972;48.078;11.876;2023-02-14T21:58:30;96792.66;;;-0.78;100.00
23589;BME280;11972;48.078;11.876;2023-02-14T22:02:30;96788.47;;;-0.81;100.00
23589;BME280;11972;48.078;11.876;2023-02-14T22:06:33;96790.22;;;-0.81;100.00
23589;BME280;11972;48.078;11.876;2023-02-14T22:10:37;96792.47;;;-0.75;100.00
23589;BME280;11972;48.078;11.876;2023-02-14T22:14:38;96782.09;;;-0.75;100.00
23589;BME280;11972;48.078;11.876;2023-02-14T22:18:39;96787.28;;;-0.75;100.00
23589;BME280;11972;48.078;11.876;2023-02-14T22:22:40;96776.91;;;-0.75;100.00
23589;BME280;11972;48.078;11.876;2023-02-14T22:26:40;96771.56;;;-0.72;100.00
23589;BME280;11972;48.078;11.876;2023-02-14T22:30:41;96773.06;;;-0.68;100.00
23589;BME280;11972;48.078;11.876;2023-02-14T22:34:41;96770.56;;;-0.69;100.00
23589;BME280;11972;48.078;11.876;2023-02-14T22:38:42;96766.28;;;-0.70;100.00
23589;BME280;11972;48.078;11.876;2023-02-14T22:42:43;96766.38;;;-0.72;100.00
23589;BME280;11972;48.078;11.876;2023-02-14T22:46:43;96756.66;;;-0.68;100.00
23589;BME280;11972;48.078;11.876;2023-02-14T22:50:43;96754.31;;;-0.73;100.00
23589;BME280;11972;48.078;11.876;2023-02-14T22:54:44;96749.44;;;-0.79;100.00
23589;BME280;11972;48.078;11.876;2023-02-14T22:58:44;96743.44;;;-0.80;100.00